OK78 weather

Delozier Airport
Chelsea, Oklahoma, United States

Public forecast

Using degrees Fahrenheit for public forecast. Weather courtesy of forecast.io.

Closest aviation weather report (METAR) to Delozier Airport

Closest report is Claremore Regional Airport, 16.2 nm (29.9 km) S. Retrieved 2020/06/07 00:35 UTC (1 minute ago):

KGCM 070035Z AUTO 14003KT 10SM CLR 31/16 A2988 RMK AO2

Closest aviation forecast (TAF) to Delozier Airport

Closest forecast is Bartlesville Municipal Airport, 30.5 nm (56.4 km) WNW. Retrieved 2020-06-07 00:22 UTC (14 minutes ago):

TAF KBVO 062320Z 0700/0724 14004KT P6SM FEW250 FM071500 17007KT P6SM SKC